• Join FlightAware (Why Join?)
  • Login
  • US Flag 
12:24AM EST


 

Airport Tracker/Info


-or-


 

Live Flight TrackerFlight Track Log ✈ UAL3732 ✈ 08-Aug-2014 ✈ KCLT - KORD

Flight Track Log - Related Links

Times and Time Zones

All times are in EDT time to prevent confusion due to time zone crossing. See the UAL3732 flight status page for this flight to view local times or setup timezone preferences in your user account.

Time Position Orientation Groundspeed Altitude Reporting Facility
EDT Latitude Longitude Course Direction KTS MPH feet Rate Location/Type
08:06AM 35.1933 -80.9533 195° South 153 176 1,500  Level Atlanta Center
08:07AM 35.1250 -80.9761 195° South 262 302 3,400 2,170 Climbing Atlanta Center
08:08AM 35.1128 -81.0706 261° West 289 333 6,600 3,040 Climbing Atlanta Center
08:08AM 35.1089 -81.0836 250° West 273 314 7,200 2,836 Climbing Atlanta Center
08:09AM 35.1250 -81.1439 288° West 271 312 9,200 2,600 Climbing Atlanta Center
08:09AM 35.1419 -81.1508 341° North 281 323 9,800 2,354 Climbing Atlanta Center
08:10AM 35.2192 -81.1608 354° North 287 330 12,300 2,050 Climbing Atlanta Center
08:11AM 35.3072 -81.1706 355° North 293 337 13,900 1,750 Climbing Atlanta Center
08:12AM 35.4014 -81.1825 354° North 318 366 15,800 1,650 Climbing Atlanta Center
08:13AM 35.5017 -81.1867 358° North 341 392 17,200 1,300 Climbing Atlanta Center
08:14AM 35.6061 -81.1983 355° North 353 406 18,400 1,500 Climbing Atlanta Center
08:15AM 35.7142 -81.2661 333° Northwest 381 438 20,200 1,800 Climbing Atlanta Center
08:16AM 35.8094 -81.3294 332° Northwest 376 433 22,000 1,500 Climbing Atlanta Center
08:17AM 35.9047 -81.3931 332° Northwest 387 445 23,200 1,250 Climbing Atlanta Center
08:18AM 36.0000 -81.4592 331° Northwest 392 451 24,500 1,150 Climbing Atlanta Center
08:19AM 36.0953 -81.5386 326° Northwest 399 459 25,500 1,000 Climbing Atlanta Center
08:20AM 36.1828 -81.6283 320° Northwest 404 465 26,500 950 Climbing Atlanta Center
08:21AM 36.2700 -81.7211 319° Northwest 409 471 27,400 800 Climbing Atlanta Center
08:22AM 36.3614 -81.8139 321° Northwest 414 476 28,100 800 Climbing Atlanta Center
08:23AM 36.4486 -81.9069 319° Northwest 414 476 29,000 900 Climbing Atlanta Center
08:24AM 36.5378 -82.0000 320° Northwest 414 476 29,900 1,150 Climbing Atlanta Center
08:25AM 36.6289 -82.0961 320° Northwest 419 482 31,300 1,052 Climbing Atlanta Center
08:26AM 36.6722 -82.1408 320° Northwest 422 486 31,600 970 Climbing Indianapolis Center
08:27AM 36.7753 -82.2508 319° Northwest 420 483 32,900 1,220 Climbing Indianapolis Center
08:28AM 36.8492 -82.3561 311° West 416 479 34,100 1,122 Climbing Indianapolis Center
08:29AM 36.9303 -82.4511 317° Northwest 404 465 35,200 919 Climbing Indianapolis Center
08:30AM 37.0153 -82.5397 320° Northwest 403 464 36,000 390 Climbing Indianapolis Center
08:31AM 37.1019 -82.6308 320° Northwest 405 466 36,000  Level Indianapolis Center
08:32AM 37.2081 -82.7431 320° Northwest 425 489 36,000  Level Indianapolis Center
08:33AM 37.3014 -82.8436 319° Northwest 440 506 36,000  Level Indianapolis Center
08:34AM 37.3950 -82.9439 320° Northwest 441 507 36,000  Level Indianapolis Center
08:35AM 37.4883 -83.0422 320° Northwest 441 507 36,000  Level Indianapolis Center
08:36AM 37.5817 -83.1411 320° Northwest 440 506 36,000  Level Indianapolis Center
08:37AM 37.6836 -83.2222 328° Northwest 435 501 36,000  Level Indianapolis Center
08:38AM 37.8008 -83.3206 326° Northwest 435 501 36,000  Level Indianapolis Center
08:39AM 37.9017 -83.4056 326° Northwest 435 501 36,000  Level Indianapolis Center
08:40AM 38.0019 -83.4900 326° Northwest 435 501 36,000  Level Indianapolis Center
08:41AM 38.1006 -83.5753 326° Northwest 432 497 36,000  Level Indianapolis Center
08:42AM 38.2003 -83.6586 327° Northwest 432 497 36,000  Level Indianapolis Center
08:43AM 38.3003 -83.7425 327° Northwest 432 497 36,000  Level Indianapolis Center
08:44AM 38.4164 -83.8422 326° Northwest 431 496 36,000  Level Indianapolis Center
08:45AM 38.5150 -83.9253 327° Northwest 429 494 36,000  Level Indianapolis Center
08:46AM 38.6131 -84.0114 326° Northwest 428 493 36,000  Level Indianapolis Center
08:47AM 38.7075 -84.0922 326° Northwest 428 493 36,000  Level Indianapolis Center
08:48AM 38.8053 -84.1767 326° Northwest 427 491 36,000  Level Indianapolis Center
08:49AM 38.9017 -84.2592 326° Northwest 420 483 36,000  Level Indianapolis Center
08:50AM 39.0161 -84.3589 326° Northwest 419 482 36,000  Level Indianapolis Center
08:52AM 39.1092 -84.4397 326° Northwest 409 471 36,000 -242 Level Indianapolis Center
08:53AM 39.1939 -84.5325 320° Northwest 404 465 35,500 -774 Descending Indianapolis Center
08:54AM 39.2717 -84.6422 312° West 409 471 34,400 -1,065 Descending Indianapolis Center
08:55AM 39.3522 -84.7556 313° West 422 486 33,300 -1,210 Descending Indianapolis Center
08:56AM 39.4369 -84.8594 317° Northwest 420 483 31,900 -1,597 Descending Indianapolis Center
08:57AM 39.5589 -84.9228 338° Northwest 421 484 30,000 -1,694 Descending Indianapolis Center
08:58AM 39.6697 -84.9797 338° Northwest 431 496 28,400 -968 Descending Indianapolis Center
08:59AM 39.7672 -85.0753 323° Northwest 443 510 28,000 -194 Descending Indianapolis Center
09:00AM 39.8664 -85.1572 328° Northwest 429 494 28,000 -290 Level Indianapolis Center
09:01AM 39.9908 -85.2600 328° Northwest 437 503 27,400 -919 Descending Indianapolis Center
09:02AM 40.0936 -85.3447 328° Northwest 438 504 26,100 -871 Descending Indianapolis Center
09:03AM 40.1956 -85.4300 327° Northwest 438 504 25,600 -927 Descending Indianapolis Center
09:04AM 40.2967 -85.5139 328° Northwest 437 503 24,200 -780 Descending Indianapolis Center
09:05AM 40.3756 -85.6275 312° West 428 493 24,000 -97 Descending Indianapolis Center
09:06AM 40.4697 -85.7725 311° West 431 496 24,000 -420 Level Indianapolis Center
09:07AM 40.5647 -85.9172 311° West 442 509 23,000 -420 Descending Chicago Center
09:08AM 40.6586 -86.0650 310° West 442 509 23,000  Level Chicago Center
09:09AM 40.7303 -86.1783 310° West 442 509 23,000 -97 Level Chicago Center
09:10AM 40.8094 -86.3036 310° West 443 510 22,800 -823 Descending Chicago Center
09:11AM 40.8867 -86.4269 310° West 437 503 21,300 -1,645 Descending Chicago Center
09:12AM 40.9744 -86.5656 310° West 410 472 19,400 -1,694 Descending Chicago Center
09:14AM 41.0467 -86.6819 309° West 409 471 17,800 -1,694 Descending Chicago Center
09:15AM 41.1244 -86.8053 310° West 399 459 15,900 -1,694 Descending Chicago Center
09:16AM 41.1947 -86.9181 310° West 401 461 14,300 -1,694 Descending Chicago Center
09:17AM 41.2708 -87.0394 310° West 401 461 12,400 -1,597 Descending Chicago Center
09:18AM 41.3383 -87.1483 310° West 384 442 11,000 -677 Descending Chicago Center
09:19AM 41.4075 -87.2425 314° West 357 411 11,000  Level Chicago Center
09:20AM 41.4878 -87.3406 318° Northwest 364 419 11,000  Level Chicago Center
09:21AM 41.5686 -87.4169 325° Northwest 359 413 11,000  Level Chicago Center
09:22AM 41.6556 -87.4956 326° Northwest 355 409 11,000 -96 Level Chicago Center
09:23AM 41.7286 -87.5800 319° Northwest 353 406 10,800 -624 Descending Chicago Center
09:24AM 41.7986 -87.6581 320° Northwest 303 349 9,700 -871 Descending Chicago Center
09:25AM 41.8664 -87.7078 331° Northwest 286 329 9,000 -774 Descending Chicago Center
09:26AM 41.9333 -87.7803 321° Northwest 300 345 8,100 -774 Descending Chicago Center
09:27AM 41.9839 -87.8589 311° West 282 325 7,400 -532 Descending Chicago Center
09:28AM 42.0369 -87.9425 311° West 279 321 7,000 -194 Descending Chicago Center
09:29AM 42.0842 -88.0183 310° West 268 308 7,000 -48 Level Chicago Center
09:30AM 42.0906 -88.0958 276° West 192 221 6,900 -480 Descending Chicago Center
09:31AM 42.0797 -88.1614 257° West 195 224 6,000 -1,104 Descending Chicago Center
09:32AM 42.0281 -88.1647 183° South 177 204 4,600 -1,355 Descending Chicago Center
09:33AM 42.0061 -88.1150 121° Southeast 158 182 3,200 -1,113 Descending Chicago Center
09:34AM 42.0017 -88.0547 96° East 153 176 2,300 -726 Descending Chicago Center
09:35AM 42.0017 -87.9986 90° East 153 176 1,700 -629 Descending Chicago Center
09:36AM 42.0019 -87.9492 90° East 129 148 1,000 -432 Descending Chicago Center
09:37AM 42.0019 -87.9094 90° East 129 148 800 -190 Descending Chicago Center